sensor_id;sensor_type;location;lat;lon;timestamp;temperature;humidity
22996;DHT22;11664;49.774;8.650;2023-08-01T00:00:54;17.50;99.90
22996;DHT22;11664;49.774;8.650;2023-08-01T00:03:36;17.50;99.90
22996;DHT22;11664;49.774;8.650;2023-08-01T00:06:08;17.50;99.90
22996;DHT22;11664;49.774;8.650;2023-08-01T00:08:33;17.40;99.90
22996;DHT22;11664;49.774;8.650;2023-08-01T00:10:59;17.40;99.90
22996;DHT22;11664;49.774;8.650;2023-08-01T00:13:30;17.40;99.90
22996;DHT22;11664;49.774;8.650;2023-08-01T00:15:56;17.30;99.90
22996;DHT22;11664;49.774;8.650;2023-08-01T00:18:21;17.30;99.90
22996;DHT22;11664;49.774;8.650;2023-08-01T00:20:53;17.40;99.90
22996;DHT22;11664;49.774;8.650;2023-08-01T00:23:31;17.40;99.90
22996;DHT22;11664;49.774;8.650;2023-08-01T00:26:09;17.30;99.90
22996;DHT22;11664;49.774;8.650;2023-08-01T00:28:35;17.30;99.90
22996;DHT22;11664;49.774;8.650;2023-08-01T00:31:08;17.30;99.90
22996;DHT22;11664;49.774;8.650;2023-08-01T00:33:51;17.40;99.90
22996;DHT22;11664;49.774;8.650;2023-08-01T00:36:16;17.20;99.90
22996;DHT22;11664;49.774;8.650;2023-08-01T00:38:42;17.20;99.90
22996;DHT22;11664;49.774;8.650;2023-08-01T00:41:11;17.30;99.90
22996;DHT22;11664;49.774;8.650;2023-08-01T00:43:43;17.30;99.90
22996;DHT22;11664;49.774;8.650;2023-08-01T00:46:15;17.30;99.90
22996;DHT22;11664;49.774;8.650;2023-08-01T00:48:46;17.30;99.90
22996;DHT22;11664;49.774;8.650;2023-08-01T00:51:16;17.40;99.90
22996;DHT22;11664;49.774;8.650;2023-08-01T00:53:43;17.30;99.90
22996;DHT22;11664;49.774;8.650;2023-08-01T00:56:14;17.30;99.90
22996;DHT22;11664;49.774;8.650;2023-08-01T00:58:40;17.40;99.90
22996;DHT22;11664;49.774;8.650;2023-08-01T01:01:11;17.40;99.90
22996;DHT22;11664;49.774;8.650;2023-08-01T01:03:39;17.40;99.90
22996;DHT22;11664;49.774;8.650;2023-08-01T01:06:19;17.50;99.90
22996;DHT22;11664;49.774;8.650;2023-08-01T01:08:47;17.60;99.90
22996;DHT22;11664;49.774;8.650;2023-08-01T01:11:19;17.50;99.90
22996;DHT22;11664;49.774;8.650;2023-08-01T01:13:47;17.40;99.90
22996;DHT22;11664;49.774;8.650;2023-08-01T01:16:16;17.50;99.90
22996;DHT22;11664;49.774;8.650;2023-08-01T01:18:41;17.60;99.90
22996;DHT22;11664;49.774;8.650;2023-08-01T01:21:10;17.60;99.90
22996;DHT22;11664;49.774;8.650;2023-08-01T01:23:42;17.70;99.90
22996;DHT22;11664;49.774;8.650;2023-08-01T01:26:09;17.60;99.90
22996;DHT22;11664;49.774;8.650;2023-08-01T01:28:39;17.40;99.90
22996;DHT22;11664;49.774;8.650;2023-08-01T01:31:08;17.50;99.90
22996;DHT22;11664;49.774;8.650;2023-08-01T01:33:43;17.50;99.90
22996;DHT22;11664;49.774;8.650;2023-08-01T01:36:15;17.60;99.90
22996;DHT22;11664;49.774;8.650;2023-08-01T01:38:42;17.60;99.90
22996;DHT22;11664;49.774;8.650;2023-08-01T01:41:17;17.60;99.90
22996;DHT22;11664;49.774;8.650;2023-08-01T01:43:42;17.60;99.90
22996;DHT22;11664;49.774;8.650;2023-08-01T01:46:09;17.50;99.90
22996;DHT22;11664;49.774;8.650;2023-08-01T01:48:41;17.50;99.90
22996;DHT22;11664;49.774;8.650;2023-08-01T01:51:07;17.50;99.90
22996;DHT22;11664;49.774;8.650;2023-08-01T01:53:33;17.50;99.90
22996;DHT22;11664;49.774;8.650;2023-08-01T01:56:01;17.40;99.90
22996;DHT22;11664;49.774;8.650;2023-08-01T01:58:39;17.40;99.90
22996;DHT22;11664;49.774;8.650;2023-08-01T02:01:07;17.40;99.90
22996;DHT22;11664;49.774;8.650;2023-08-01T02:03:42;17.40;99.90
22996;DHT22;11664;49.774;8.650;2023-08-01T02:06:16;17.40;99.90
22996;DHT22;11664;49.774;8.650;2023-08-01T02:08:45;17.30;99.90
22996;DHT22;11664;49.774;8.650;2023-08-01T02:11:17;17.40;99.90
22996;DHT22;11664;49.774;8.650;2023-08-01T02:13:48;17.30;99.90
22996;DHT22;11664;49.774;8.650;2023-08-01T02:16:20;17.30;99.90
22996;DHT22;11664;49.774;8.650;2023-08-01T02:18:52;17.30;99.90
22996;DHT22;11664;49.774;8.650;2023-08-01T02:21:20;17.30;99.90
22996;DHT22;11664;49.774;8.650;2023-08-01T02:23:58;17.30;99.90
22996;DHT22;11664;49.774;8.650;2023-08-01T02:26:23;17.40;99.90
22996;DHT22;11664;49.774;8.650;2023-08-01T02:28:52;17.40;99.90
22996;DHT22;11664;49.774;8.650;2023-08-01T02:31:30;17.40;99.90
22996;DHT22;11664;49.774;8.650;2023-08-01T02:33:56;17.50;99.90
22996;DHT22;11664;49.774;8.650;2023-08-01T02:36:21;17.40;99.90
22996;DHT22;11664;49.774;8.650;2023-08-01T02:38:47;17.40;99.90
22996;DHT22;11664;49.774;8.650;2023-08-01T02:41:13;17.50;99.90
22996;DHT22;11664;49.774;8.650;2023-08-01T02:43:38;17.40;99.90
22996;DHT22;11664;49.774;8.650;2023-08-01T02:46:04;17.40;99.90
22996;DHT22;11664;49.774;8.650;2023-08-01T02:48:39;17.40;99.90
22996;DHT22;11664;49.774;8.650;2023-08-01T02:51:05;17.40;99.90
22996;DHT22;11664;49.774;8.650;2023-08-01T02:53:43;17.40;99.90
22996;DHT22;11664;49.774;8.650;2023-08-01T02:56:08;17.40;99.90
22996;DHT22;11664;49.774;8.650;2023-08-01T02:58:41;17.40;99.90
22996;DHT22;11664;49.774;8.650;2023-08-01T03:01:13;17.40;99.90
22996;DHT22;11664;49.774;8.650;2023-08-01T03:03:45;17.40;99.90
22996;DHT22;11664;49.774;8.650;2023-08-01T03:06:11;17.40;99.90
22996;DHT22;11664;49.774;8.650;2023-08-01T03:08:53;17.40;99.90
22996;DHT22;11664;49.774;8.650;2023-08-01T03:11:27;17.40;99.90
22996;DHT22;11664;49.774;8.650;2023-08-01T03:13:53;17.40;99.90
22996;DHT22;11664;49.774;8.650;2023-08-01T03:16:28;17.40;99.90
22996;DHT22;11664;49.774;8.650;2023-08-01T03:18:53;17.50;99.90
22996;DHT22;11664;49.774;8.650;2023-08-01T03:21:34;17.50;99.90
22996;DHT22;11664;49.774;8.650;2023-08-01T03:24:03;17.50;99.90
22996;DHT22;11664;49.774;8.650;2023-08-01T03:26:36;17.40;99.90
22996;DHT22;11664;49.774;8.650;2023-08-01T03:29:02;17.50;99.90
22996;DHT22;11664;49.774;8.650;2023-08-01T03:31:28;17.50;99.90
22996;DHT22;11664;49.774;8.650;2023-08-01T03:33:59;17.40;99.90
22996;DHT22;11664;49.774;8.650;2023-08-01T03:36:28;17.50;99.90
22996;DHT22;11664;49.774;8.650;2023-08-01T03:38:56;17.50;99.90
22996;DHT22;11664;49.774;8.650;2023-08-01T03:41:34;17.50;99.90
22996;DHT22;11664;49.774;8.650;2023-08-01T03:44:09;17.50;99.90
22996;DHT22;11664;49.774;8.650;2023-08-01T03:46:40;17.50;99.90
22996;DHT22;11664;49.774;8.650;2023-08-01T03:49:12;17.50;99.90
22996;DHT22;11664;49.774;8.650;2023-08-01T03:51:38;17.40;99.90
22996;DHT22;11664;49.774;8.650;2023-08-01T03:54:03;17.40;99.90
22996;DHT22;11664;49.774;8.650;2023-08-01T03:56:38;17.40;99.90
22996;DHT22;11664;49.774;8.650;2023-08-01T03:59:07;17.40;99.90
22996;DHT22;11664;49.774;8.650;2023-08-01T04:01:33;17.40;99.90
22996;DHT22;11664;49.774;8.650;2023-08-01T04:03:58;17.30;99.90
22996;DHT22;11664;49.774;8.650;2023-08-01T04:06:24;17.30;99.90
22996;DHT22;11664;49.774;8.650;2023-08-01T04:08:55;17.30;99.90
22996;DHT22;11664;49.774;8.650;2023-08-01T04:11:22;17.30;99.90
22996;DHT22;11664;49.774;8.650;2023-08-01T04:13:59;17.30;99.90
22996;DHT22;11664;49.774;8.650;2023-08-01T04:16:25;17.30;99.90
22996;DHT22;11664;49.774;8.650;2023-08-01T04:19:00;17.40;99.90
22996;DHT22;11664;49.774;8.650;2023-08-01T04:21:34;17.30;99.90
22996;DHT22;11664;49.774;8.650;2023-08-01T04:24:00;17.30;99.90
22996;DHT22;11664;49.774;8.650;2023-08-01T04:26:26;17.30;99.90
22996;DHT22;11664;49.774;8.650;2023-08-01T04:28:57;17.30;99.90
22996;DHT22;11664;49.774;8.650;2023-08-01T04:31:23;17.30;99.90
22996;DHT22;11664;49.774;8.650;2023-08-01T04:33:51;17.30;99.90
22996;DHT22;11664;49.774;8.650;2023-08-01T04:36:20;17.30;99.90
22996;DHT22;11664;49.774;8.650;2023-08-01T04:38:48;17.30;99.90
22996;DHT22;11664;49.774;8.650;2023-08-01T04:41:20;17.30;99.90
22996;DHT22;11664;49.774;8.650;2023-08-01T04:43:58;17.30;99.90
22996;DHT22;11664;49.774;8.650;2023-08-01T04:46:24;17.30;99.90
22996;DHT22;11664;49.774;8.650;2023-08-01T04:48:53;17.30;99.90
22996;DHT22;11664;49.774;8.650;2023-08-01T04:51:18;17.30;99.90
22996;DHT22;11664;49.774;8.650;2023-08-01T04:53:45;17.30;99.90
22996;DHT22;11664;49.774;8.650;2023-08-01T04:56:10;17.30;99.90
22996;DHT22;11664;49.774;8.650;2023-08-01T04:58:51;17.30;99.90
22996;DHT22;11664;49.774;8.650;2023-08-01T05:01:29;17.30;99.90
22996;DHT22;11664;49.774;8.650;2023-08-01T05:03:55;17.30;99.90
22996;DHT22;11664;49.774;8.650;2023-08-01T05:06:22;17.30;99.90
22996;DHT22;11664;49.774;8.650;2023-08-01T05:12:04;17.30;99.90
22996;DHT22;11664;49.774;8.650;2023-08-01T05:14:32;17.20;99.90
22996;DHT22;11664;49.774;8.650;2023-08-01T05:17:20;17.20;99.90
22996;DHT22;11664;49.774;8.650;2023-08-01T05:19:52;17.00;99.90
22996;DHT22;11664;49.774;8.650;2023-08-01T05:22:17;17.00;99.90
22996;DHT22;11664;49.774;8.650;2023-08-01T05:24:46;16.90;99.90
22996;DHT22;11664;49.774;8.650;2023-08-01T05:27:14;17.00;99.90
22996;DHT22;11664;49.774;8.650;2023-08-01T05:29:46;17.00;99.90
22996;DHT22;11664;49.774;8.650;2023-08-01T05:32:12;16.90;99.90
22996;DHT22;11664;49.774;8.650;2023-08-01T05:34:37;16.80;99.90
22996;DHT22;11664;49.774;8.650;2023-08-01T05:37:06;16.80;99.90
22996;DHT22;11664;49.774;8.650;2023-08-01T05:39:43;16.70;99.90
22996;DHT22;11664;49.774;8.650;2023-08-01T05:42:09;16.70;99.90
22996;DHT22;11664;49.774;8.650;2023-08-01T05:44:34;16.70;99.90
22996;DHT22;11664;49.774;8.650;2023-08-01T05:47:00;16.70;99.90
22996;DHT22;11664;49.774;8.650;2023-08-01T05:49:32;16.70;99.90
22996;DHT22;11664;49.774;8.650;2023-08-01T05:52:00;16.70;99.90
22996;DHT22;11664;49.774;8.650;2023-08-01T05:54:26;16.80;99.90
22996;DHT22;11664;49.774;8.650;2023-08-01T05:56:57;16.80;99.90
22996;DHT22;11664;49.774;8.650;2023-08-01T05:59:26;16.80;99.90
22996;DHT22;11664;49.774;8.650;2023-08-01T06:01:55;16.80;99.90
22996;DHT22;11664;49.774;8.650;2023-08-01T06:04:23;16.80;99.90
22996;DHT22;11664;49.774;8.650;2023-08-01T06:06:55;16.80;99.90
22996;DHT22;11664;49.774;8.650;2023-08-01T06:09:24;16.80;99.90
22996;DHT22;11664;49.774;8.650;2023-08-01T06:11:56;16.90;99.90
22996;DHT22;11664;49.774;8.650;2023-08-01T06:14:28;16.90;99.90
22996;DHT22;11664;49.774;8.650;2023-08-01T06:16:59;16.90;99.90
22996;DHT22;11664;49.774;8.650;2023-08-01T06:19:28;16.90;99.90
22996;DHT22;11664;49.774;8.650;2023-08-01T06:21:56;16.90;99.90
22996;DHT22;11664;49.774;8.650;2023-08-01T06:24:22;17.00;99.90
22996;DHT22;11664;49.774;8.650;2023-08-01T06:26:47;17.00;99.90
22996;DHT22;11664;49.774;8.650;2023-08-01T06:29:22;17.00;99.90
22996;DHT22;11664;49.774;8.650;2023-08-01T06:31:47;17.00;99.90
22996;DHT22;11664;49.774;8.650;2023-08-01T06:34:13;17.00;99.90
22996;DHT22;11664;49.774;8.650;2023-08-01T06:36:41;17.00;99.90
22996;DHT22;11664;49.774;8.650;2023-08-01T06:39:13;17.00;99.90
22996;DHT22;11664;49.774;8.650;2023-08-01T06:41:38;17.00;99.90
22996;DHT22;11664;49.774;8.650;2023-08-01T06:44:07;17.10;99.90
22996;DHT22;11664;49.774;8.650;2023-08-01T06:46:44;17.10;99.90
22996;DHT22;11664;49.774;8.650;2023-08-01T06:49:22;17.20;99.90
22996;DHT22;11664;49.774;8.650;2023-08-01T06:51:53;17.00;99.90
22996;DHT22;11664;49.774;8.650;2023-08-01T06:54:22;17.10;99.90
22996;DHT22;11664;49.774;8.650;2023-08-01T06:56:59;17.10;99.90
22996;DHT22;11664;49.774;8.650;2023-08-01T06:59:47;17.10;99.90
22996;DHT22;11664;49.774;8.650;2023-08-01T07:02:15;17.20;99.90
22996;DHT22;11664;49.774;8.650;2023-08-01T07:04:41;17.40;99.90
22996;DHT22;11664;49.774;8.650;2023-08-01T07:07:09;17.40;99.90
22996;DHT22;11664;49.774;8.650;2023-08-01T07:09:53;17.50;99.90
22996;DHT22;11664;49.774;8.650;2023-08-01T07:12:18;17.40;99.90
22996;DHT22;11664;49.774;8.650;2023-08-01T07:14:44;17.50;99.90
22996;DHT22;11664;49.774;8.650;2023-08-01T07:17:09;17.40;99.90
22996;DHT22;11664;49.774;8.650;2023-08-01T07:19:35;17.40;99.90
22996;DHT22;11664;49.774;8.650;2023-08-01T07:22:00;17.50;99.90
22996;DHT22;11664;49.774;8.650;2023-08-01T07:24:44;17.60;99.90
22996;DHT22;11664;49.774;8.650;2023-08-01T07:27:19;17.60;99.90
22996;DHT22;11664;49.774;8.650;2023-08-01T07:29:51;17.50;99.90
22996;DHT22;11664;49.774;8.650;2023-08-01T07:32:16;17.50;99.90
22996;DHT22;11664;49.774;8.650;2023-08-01T07:34:45;17.50;99.90
22996;DHT22;11664;49.774;8.650;2023-08-01T07:37:13;17.40;99.90
22996;DHT22;11664;49.774;8.650;2023-08-01T07:39:57;17.40;99.90
22996;DHT22;11664;49.774;8.650;2023-08-01T07:42:28;17.30;99.90
22996;DHT22;11664;49.774;8.650;2023-08-01T07:44:55;17.30;99.90
22996;DHT22;11664;49.774;8.650;2023-08-01T07:47:24;17.30;99.90
22996;DHT22;11664;49.774;8.650;2023-08-01T07:49:50;17.20;99.90
22996;DHT22;11664;49.774;8.650;2023-08-01T07:52:31;17.00;99.90
22996;DHT22;11664;49.774;8.650;2023-08-01T07:54:56;17.10;99.90
22996;DHT22;11664;49.774;8.650;2023-08-01T07:57:23;17.20;99.90
22996;DHT22;11664;49.774;8.650;2023-08-01T07:59:58;17.30;99.90
22996;DHT22;11664;49.774;8.650;2023-08-01T08:02:23;17.40;99.90
22996;DHT22;11664;49.774;8.650;2023-08-01T08:04:55;17.50;99.90
22996;DHT22;11664;49.774;8.650;2023-08-01T08:07:23;17.50;99.90
22996;DHT22;11664;49.774;8.650;2023-08-01T08:09:58;17.60;99.90
22996;DHT22;11664;49.774;8.650;2023-08-01T08:12:33;17.90;99.90
22996;DHT22;11664;49.774;8.650;2023-08-01T08:15:02;18.30;99.90
22996;DHT22;11664;49.774;8.650;2023-08-01T08:17:30;18.40;99.90
22996;DHT22;11664;49.774;8.650;2023-08-01T08:19:56;18.70;99.90
22996;DHT22;11664;49.774;8.650;2023-08-01T08:22:27;19.10;99.90
22996;DHT22;11664;49.774;8.650;2023-08-01T08:24:53;19.20;99.90
22996;DHT22;11664;49.774;8.650;2023-08-01T08:27:21;19.20;99.90
22996;DHT22;11664;49.774;8.650;2023-08-01T08:29:59;19.30;99.90
22996;DHT22;11664;49.774;8.650;2023-08-01T08:32:24;19.20;99.90
22996;DHT22;11664;49.774;8.650;2023-08-01T08:34:50;19.20;99.90
22996;DHT22;11664;49.774;8.650;2023-08-01T08:37:15;19.20;99.90
22996;DHT22;11664;49.774;8.650;2023-08-01T08:39:47;19.10;99.90
22996;DHT22;11664;49.774;8.650;2023-08-01T08:42:13;19.10;99.90
22996;DHT22;11664;49.774;8.650;2023-08-01T08:44:55;19.20;99.90
22996;DHT22;11664;49.774;8.650;2023-08-01T08:47:24;19.20;99.90
22996;DHT22;11664;49.774;8.650;2023-08-01T08:49:55;19.20;99.90
22996;DHT22;11664;49.774;8.650;2023-08-01T08:52:22;19.40;99.90
22996;DHT22;11664;49.774;8.650;2023-08-01T08:54:52;19.40;99.90
22996;DHT22;11664;49.774;8.650;2023-08-01T08:57:25;19.50;99.90
22996;DHT22;11664;49.774;8.650;2023-08-01T08:59:51;19.40;99.90
22996;DHT22;11664;49.774;8.650;2023-08-01T09:02:18;19.60;99.90
22996;DHT22;11664;49.774;8.650;2023-08-01T09:04:44;19.90;99.90
22996;DHT22;11664;49.774;8.650;2023-08-01T09:07:15;20.00;99.90
22996;DHT22;11664;49.774;8.650;2023-08-01T09:09:41;20.20;99.90
22996;DHT22;11664;49.774;8.650;2023-08-01T09:12:13;20.00;99.90
22996;DHT22;11664;49.774;8.650;2023-08-01T09:14:45;19.80;99.90
22996;DHT22;11664;49.774;8.650;2023-08-01T09:17:14;20.00;99.90
22996;DHT22;11664;49.774;8.650;2023-08-01T09:19:44;20.00;99.90
22996;DHT22;11664;49.774;8.650;2023-08-01T09:22:11;20.00;99.90
22996;DHT22;11664;49.774;8.650;2023-08-01T09:24:53;19.80;99.90
22996;DHT22;11664;49.774;8.650;2023-08-01T09:27:21;20.10;99.90
22996;DHT22;11664;49.774;8.650;2023-08-01T09:29:47;19.90;99.90
22996;DHT22;11664;49.774;8.650;2023-08-01T09:32:13;19.90;99.90
22996;DHT22;11664;49.774;8.650;2023-08-01T09:34:41;19.80;99.90
22996;DHT22;11664;49.774;8.650;2023-08-01T09:37:09;19.90;99.90
22996;DHT22;11664;49.774;8.650;2023-08-01T09:39:41;20.00;99.90
22996;DHT22;11664;49.774;8.650;2023-08-01T09:42:13;20.10;99.90
22996;DHT22;11664;49.774;8.650;2023-08-01T09:44:38;20.10;99.90
22996;DHT22;11664;49.774;8.650;2023-08-01T09:47:10;20.30;99.90
22996;DHT22;11664;49.774;8.650;2023-08-01T09:49:49;19.90;99.90
22996;DHT22;11664;49.774;8.650;2023-08-01T09:52:29;20.10;99.90
22996;DHT22;11664;49.774;8.650;2023-08-01T09:55:01;20.00;99.90
22996;DHT22;11664;49.774;8.650;2023-08-01T09:57:29;20.20;99.90
22996;DHT22;11664;49.774;8.650;2023-08-01T09:59:56;20.00;99.90
22996;DHT22;11664;49.774;8.650;2023-08-01T10:02:24;19.80;99.90
22996;DHT22;11664;49.774;8.650;2023-08-01T10:04:54;19.80;99.90
22996;DHT22;11664;49.774;8.650;2023-08-01T10:07:25;20.20;99.90
22996;DHT22;11664;49.774;8.650;2023-08-01T10:10:14;20.20;99.90
22996;DHT22;11664;49.774;8.650;2023-08-01T10:12:52;20.30;99.90
22996;DHT22;11664;49.774;8.650;2023-08-01T10:15:25;20.30;99.90
22996;DHT22;11664;49.774;8.650;2023-08-01T10:17:57;20.30;99.90
22996;DHT22;11664;49.774;8.650;2023-08-01T10:20:36;20.20;99.90
22996;DHT22;11664;49.774;8.650;2023-08-01T10:23:03;20.50;99.90
22996;DHT22;11664;49.774;8.650;2023-08-01T10:25:29;20.10;99.90
22996;DHT22;11664;49.774;8.650;2023-08-01T10:28:08;20.50;99.90
22996;DHT22;11664;49.774;8.650;2023-08-01T10:30:36;20.40;99.90
22996;DHT22;11664;49.774;8.650;2023-08-01T10:33:02;20.40;99.90
22996;DHT22;11664;49.774;8.650;2023-08-01T10:35:38;20.80;99.90
22996;DHT22;11664;49.774;8.650;2023-08-01T10:38:11;21.00;99.90
22996;DHT22;11664;49.774;8.650;2023-08-01T10:40:38;21.00;99.90
22996;DHT22;11664;49.774;8.650;2023-08-01T10:43:20;20.90;99.90
22996;DHT22;11664;49.774;8.650;2023-08-01T10:48:31;21.00;99.90
22996;DHT22;11664;49.774;8.650;2023-08-01T10:51:15;21.30;99.90
22996;DHT22;11664;49.774;8.650;2023-08-01T10:53:43;21.40;99.90
22996;DHT22;11664;49.774;8.650;2023-08-01T10:56:19;21.30;99.90
22996;DHT22;11664;49.774;8.650;2023-08-01T10:58:48;21.40;99.90
22996;DHT22;11664;49.774;8.650;2023-08-01T11:01:16;21.50;99.90
22996;DHT22;11664;49.774;8.650;2023-08-01T11:03:47;21.60;99.90
22996;DHT22;11664;49.774;8.650;2023-08-01T11:06:12;21.90;99.90
22996;DHT22;11664;49.774;8.650;2023-08-01T11:08:41;22.00;99.90
22996;DHT22;11664;49.774;8.650;2023-08-01T11:11:11;21.60;99.90
22996;DHT22;11664;49.774;8.650;2023-08-01T11:13:41;21.70;99.90
22996;DHT22;11664;49.774;8.650;2023-08-01T11:16:14;22.00;99.90
22996;DHT22;11664;49.774;8.650;2023-08-01T11:18:43;21.80;99.90
22996;DHT22;11664;49.774;8.650;2023-08-01T11:21:09;21.80;99.90
22996;DHT22;11664;49.774;8.650;2023-08-01T11:23:35;21.90;99.90
22996;DHT22;11664;49.774;8.650;2023-08-01T11:26:06;21.90;99.90
22996;DHT22;11664;49.774;8.650;2023-08-01T11:28:32;21.80;99.90
22996;DHT22;11664;49.774;8.650;2023-08-01T11:30:58;21.60;99.90
22996;DHT22;11664;49.774;8.650;2023-08-01T11:33:23;21.40;99.90
22996;DHT22;11664;49.774;8.650;2023-08-01T11:35:56;21.90;99.90
22996;DHT22;11664;49.774;8.650;2023-08-01T11:38:33;21.80;99.90
22996;DHT22;11664;49.774;8.650;2023-08-01T11:41:00;21.60;99.90
22996;DHT22;11664;49.774;8.650;2023-08-01T11:43:26;21.30;99.90
22996;DHT22;11664;49.774;8.650;2023-08-01T11:45:58;21.20;99.90
22996;DHT22;11664;49.774;8.650;2023-08-01T11:48:30;21.40;99.90
22996;DHT22;11664;49.774;8.650;2023-08-01T11:51:00;21.40;99.90
22996;DHT22;11664;49.774;8.650;2023-08-01T11:53:26;21.40;99.90
22996;DHT22;11664;49.774;8.650;2023-08-01T11:56:08;21.50;99.90
22996;DHT22;11664;49.774;8.650;2023-08-01T11:58:35;22.10;99.90
22996;DHT22;11664;49.774;8.650;2023-08-01T12:01:10;22.30;99.90
22996;DHT22;11664;49.774;8.650;2023-08-01T12:03:47;22.50;99.90
22996;DHT22;11664;49.774;8.650;2023-08-01T12:06:13;22.90;99.90
22996;DHT22;11664;49.774;8.650;2023-08-01T12:08:41;23.10;99.90
22996;DHT22;11664;49.774;8.650;2023-08-01T12:11:17;23.20;99.90
22996;DHT22;11664;49.774;8.650;2023-08-01T12:13:44;23.30;99.90
22996;DHT22;11664;49.774;8.650;2023-08-01T12:16:09;24.10;99.90
22996;DHT22;11664;49.774;8.650;2023-08-01T12:18:44;23.70;99.90
22996;DHT22;11664;49.774;8.650;2023-08-01T12:21:10;23.50;99.90
22996;DHT22;11664;49.774;8.650;2023-08-01T12:23:36;23.10;99.90
22996;DHT22;11664;49.774;8.650;2023-08-01T12:26:01;22.90;99.90
22996;DHT22;11664;49.774;8.650;2023-08-01T12:28:27;23.00;99.90
22996;DHT22;11664;49.774;8.650;2023-08-01T12:30:52;23.00;99.90
22996;DHT22;11664;49.774;8.650;2023-08-01T12:33:18;22.70;99.90
22996;DHT22;11664;49.774;8.650;2023-08-01T12:35:50;22.60;99.90
22996;DHT22;11664;49.774;8.650;2023-08-01T12:38:15;22.50;99.90
22996;DHT22;11664;49.774;8.650;2023-08-01T12:40:47;22.70;99.90
22996;DHT22;11664;49.774;8.650;2023-08-01T12:43:22;23.40;99.90
22996;DHT22;11664;49.774;8.650;2023-08-01T12:45:54;23.30;99.90
22996;DHT22;11664;49.774;8.650;2023-08-01T12:48:24;22.60;99.90
22996;DHT22;11664;49.774;8.650;2023-08-01T12:50:53;22.70;99.90
22996;DHT22;11664;49.774;8.650;2023-08-01T12:53:25;23.20;99.90
22996;DHT22;11664;49.774;8.650;2023-08-01T12:56:00;23.10;99.90
22996;DHT22;11664;49.774;8.650;2023-08-01T12:58:28;23.30;99.90
22996;DHT22;11664;49.774;8.650;2023-08-01T13:00:57;23.20;99.90
22996;DHT22;11664;49.774;8.650;2023-08-01T13:03:25;23.60;99.90
22996;DHT22;11664;49.774;8.650;2023-08-01T13:05:54;24.20;99.90
22996;DHT22;11664;49.774;8.650;2023-08-01T13:08:21;24.40;99.90
22996;DHT22;11664;49.774;8.650;2023-08-01T13:10:51;24.30;99.90
22996;DHT22;11664;49.774;8.650;2023-08-01T13:13:23;24.20;99.90
22996;DHT22;11664;49.774;8.650;2023-08-01T13:15:48;23.70;99.90
22996;DHT22;11664;49.774;8.650;2023-08-01T13:18:17;23.70;99.90
22996;DHT22;11664;49.774;8.650;2023-08-01T13:20:57;24.00;99.90
22996;DHT22;11664;49.774;8.650;2023-08-01T13:23:23;24.50;99.90
22996;DHT22;11664;49.774;8.650;2023-08-01T13:25:49;24.30;99.90
22996;DHT22;11664;49.774;8.650;2023-08-01T13:28:14;25.20;99.90
22996;DHT22;11664;49.774;8.650;2023-08-01T13:30:43;25.10;99.90
22996;DHT22;11664;49.774;8.650;2023-08-01T13:33:11;25.10;99.90
22996;DHT22;11664;49.774;8.650;2023-08-01T13:35:43;25.00;99.90
22996;DHT22;11664;49.774;8.650;2023-08-01T13:38:18;23.80;99.90
22996;DHT22;11664;49.774;8.650;2023-08-01T13:40:53;22.90;99.90
22996;DHT22;11664;49.774;8.650;2023-08-01T13:43:24;23.40;99.90
22996;DHT22;11664;49.774;8.650;2023-08-01T13:45:50;23.40;99.90
22996;DHT22;11664;49.774;8.650;2023-08-01T13:48:15;23.60;99.90
22996;DHT22;11664;49.774;8.650;2023-08-01T13:50:44;24.20;99.90
22996;DHT22;11664;49.774;8.650;2023-08-01T13:53:09;24.50;99.90
22996;DHT22;11664;49.774;8.650;2023-08-01T13:55:39;24.90;99.90
22996;DHT22;11664;49.774;8.650;2023-08-01T13:58:04;25.90;99.90
22996;DHT22;11664;49.774;8.650;2023-08-01T14:00:33;26.90;99.90
22996;DHT22;11664;49.774;8.650;2023-08-01T14:03:01;26.30;99.90
22996;DHT22;11664;49.774;8.650;2023-08-01T14:05:30;27.10;99.90
22996;DHT22;11664;49.774;8.650;2023-08-01T14:07:59;26.20;99.90
22996;DHT22;11664;49.774;8.650;2023-08-01T14:10:27;24.70;99.90
22996;DHT22;11664;49.774;8.650;2023-08-01T14:15:28;23.70;99.90
22996;DHT22;11664;49.774;8.650;2023-08-01T14:17:56;23.40;99.90
22996;DHT22;11664;49.774;8.650;2023-08-01T14:20:35;23.10;99.90
22996;DHT22;11664;49.774;8.650;2023-08-01T14:23:06;22.90;99.90
22996;DHT22;11664;49.774;8.650;2023-08-01T14:25:31;22.80;99.90
22996;DHT22;11664;49.774;8.650;2023-08-01T14:28:07;22.90;99.90
22996;DHT22;11664;49.774;8.650;2023-08-01T14:30:34;23.40;99.90
22996;DHT22;11664;49.774;8.650;2023-08-01T14:33:09;23.20;99.90
22996;DHT22;11664;49.774;8.650;2023-08-01T14:35:44;22.80;99.90
22996;DHT22;11664;49.774;8.650;2023-08-01T14:38:09;22.40;99.90
22996;DHT22;11664;49.774;8.650;2023-08-01T14:40:35;22.30;99.90
22996;DHT22;11664;49.774;8.650;2023-08-01T14:43:01;22.30;99.90
22996;DHT22;11664;49.774;8.650;2023-08-01T14:45:30;22.00;99.90
22996;DHT22;11664;49.774;8.650;2023-08-01T14:48:02;21.10;99.90
22996;DHT22;11664;49.774;8.650;2023-08-01T14:50:30;20.00;99.90
22996;DHT22;11664;49.774;8.650;2023-08-01T14:52:56;19.30;99.90
22996;DHT22;11664;49.774;8.650;2023-08-01T14:55:21;19.00;99.90
22996;DHT22;11664;49.774;8.650;2023-08-01T14:57:48;18.60;99.90
22996;DHT22;11664;49.774;8.650;2023-08-01T15:00:20;18.70;99.90
22996;DHT22;11664;49.774;8.650;2023-08-01T15:02:49;18.70;99.90
22996;DHT22;11664;49.774;8.650;2023-08-01T15:05:15;18.80;99.90
22996;DHT22;11664;49.774;8.650;2023-08-01T15:07:41;18.80;99.90
22996;DHT22;11664;49.774;8.650;2023-08-01T15:10:13;18.70;99.90
22996;DHT22;11664;49.774;8.650;2023-08-01T15:12:38;18.80;99.90
22996;DHT22;11664;49.774;8.650;2023-08-01T15:15:10;18.60;99.90
22996;DHT22;11664;49.774;8.650;2023-08-01T15:17:35;18.70;99.90
22996;DHT22;11664;49.774;8.650;2023-08-01T15:20:05;18.90;99.90
22996;DHT22;11664;49.774;8.650;2023-08-01T15:22:36;18.80;99.90
22996;DHT22;11664;49.774;8.650;2023-08-01T15:25:11;18.70;99.90
22996;DHT22;11664;49.774;8.650;2023-08-01T15:27:45;18.80;99.90
22996;DHT22;11664;49.774;8.650;2023-08-01T15:30:11;19.00;99.90
22996;DHT22;11664;49.774;8.650;2023-08-01T15:32:42;19.00;99.90
22996;DHT22;11664;49.774;8.650;2023-08-01T15:35:08;19.00;99.90
22996;DHT22;11664;49.774;8.650;2023-08-01T15:37:34;19.00;99.90
22996;DHT22;11664;49.774;8.650;2023-08-01T15:40:02;18.90;99.90
22996;DHT22;11664;49.774;8.650;2023-08-01T15:42:28;18.80;99.90
22996;DHT22;11664;49.774;8.650;2023-08-01T15:44:59;18.70;99.90
22996;DHT22;11664;49.774;8.650;2023-08-01T15:47:25;18.60;99.90
22996;DHT22;11664;49.774;8.650;2023-08-01T15:49:51;18.00;99.90
22996;DHT22;11664;49.774;8.650;2023-08-01T15:52:16;17.80;99.90
22996;DHT22;11664;49.774;8.650;2023-08-01T15:54:45;17.50;99.90